createdAt,value
2022-12-01T00:00:43.019Z,100386.25
2022-12-01T00:04:59.285Z,100376.75
2022-12-01T00:09:34.064Z,100393.06
2022-12-01T00:13:50.231Z,100394.31
2022-12-01T00:18:11.157Z,100403.78
2022-12-01T00:22:27.395Z,100396.34
2022-12-01T00:26:43.681Z,100408.22
2022-12-01T00:31:00.475Z,100408.97
2022-12-01T00:35:17.874Z,100408.75
2022-12-01T00:39:34.100Z,100416.91
2022-12-01T00:43:50.531Z,100416.44
2022-12-01T00:48:06.760Z,100430.41
2022-12-01T00:52:22.953Z,100430.78
2022-12-01T00:56:39.199Z,100430.78
2022-12-01T01:01:00.438Z,100429.38
2022-12-01T01:05:16.736Z,100436.91
2022-12-01T01:09:33.804Z,100440.13
2022-12-01T01:13:50.048Z,100436.22
2022-12-01T01:18:06.800Z,100430.03
2022-12-01T01:22:22.991Z,100428.25
2022-12-01T01:26:39.231Z,100425.53
2022-12-01T01:30:55.418Z,100423.22
2022-12-01T01:35:11.638Z,100419.66
2022-12-01T01:39:27.893Z,100413.19
2022-12-01T01:43:53.424Z,100417.72
2022-12-01T01:48:10.869Z,100406.28
2022-12-01T01:52:28.041Z,100408.50
2022-12-01T01:56:48.692Z,100404.34
2022-12-01T02:01:05.072Z,100414.44
2022-12-01T02:05:24.091Z,100415.03
2022-12-01T02:09:40.369Z,100423.19
2022-12-01T02:14:05.502Z,100437.47
2022-12-01T02:18:44.369Z,100425.94
2022-12-01T02:23:28.142Z,100430.81
2022-12-01T02:28:02.753Z,100424.59
2022-12-01T02:32:26.712Z,100437.25
2022-12-01T02:36:58.918Z,100427.31
2022-12-01T02:41:29.840Z,100433.47
2022-12-01T02:45:45.968Z,100426.50
2022-12-01T02:50:03.704Z,100424.13
2022-12-01T02:54:20.486Z,100424.94
2022-12-01T02:58:36.671Z,100425.44
2022-12-01T03:03:00.279Z,100425.22
2022-12-01T03:07:54.353Z,100418.50
2022-12-01T03:12:28.603Z,100417.09
2022-12-01T03:16:52.408Z,100411.34
2022-12-01T03:21:21.444Z,100408.38
2022-12-01T03:25:40.131Z,100408.06
2022-12-01T03:29:59.380Z,100397.66
2022-12-01T03:34:26.895Z,100397.22
2022-12-01T03:38:45.743Z,100398.28
2022-12-01T03:43:07.624Z,100400.50
2022-12-01T03:47:26.176Z,100393.31
2022-12-01T03:51:56.204Z,100402.16
2022-12-01T03:56:13.092Z,100404.25
2022-12-01T04:00:31.440Z,100400.06
2022-12-01T04:04:47.713Z,100393.88
2022-12-01T04:09:04.137Z,100412.75
2022-12-01T04:13:23.371Z,100414.84
2022-12-01T04:17:43.487Z,100412.19
2022-12-01T04:21:59.653Z,100411.78
2022-12-01T04:26:16.072Z,100401.34
2022-12-01T04:30:32.283Z,100400.38
2022-12-01T04:34:48.416Z,100406.19
2022-12-01T04:39:04.612Z,100421.13
2022-12-01T04:43:20.778Z,100417.13
2022-12-01T04:47:36.869Z,100418.62
2022-12-01T04:51:53.013Z,100416.87
2022-12-01T04:56:09.263Z,100425.47
2022-12-01T05:00:25.360Z,100427.09
2022-12-01T05:04:42.027Z,100430.19
2022-12-01T05:09:00.210Z,100428.75
2022-12-01T05:13:16.731Z,100422.78
2022-12-01T05:17:36.925Z,100431.94
2022-12-01T05:21:53.568Z,100445.56
2022-12-01T05:26:10.147Z,100451.00
2022-12-01T05:30:28.777Z,100454.53
2022-12-01T05:34:45.193Z,100461.75
2022-12-01T05:39:01.421Z,100465.72
2022-12-01T05:43:18.137Z,100470.47
2022-12-01T05:47:34.304Z,100464.91
2022-12-01T05:51:50.509Z,100461.81
2022-12-01T05:56:07.949Z,100460.34
2022-12-01T06:00:24.104Z,100467.59
2022-12-01T06:04:40.296Z,100461.16
2022-12-01T06:08:56.391Z,100466.75
2022-12-01T06:13:12.576Z,100466.97
2022-12-01T06:17:29.019Z,100476.66
2022-12-01T06:21:45.102Z,100469.84
2022-12-01T06:26:01.341Z,100477.94
2022-12-01T06:30:17.621Z,100476.09
2022-12-01T06:34:33.762Z,100477.97
2022-12-01T06:38:49.833Z,100481.28
2022-12-01T06:43:06.719Z,100479.41
2022-12-01T06:47:22.883Z,100485.41
2022-12-01T06:51:39.651Z,100478.19
2022-12-01T06:56:06.084Z,100484.63
2022-12-01T07:00:22.907Z,100478.56
2022-12-01T07:04:38.994Z,100482.50
2022-12-01T07:08:55.033Z,100487.28
2022-12-01T07:13:11.162Z,100487.28
2022-12-01T07:17:27.441Z,100497.47
2022-12-01T07:21:43.871Z,100487.50
2022-12-01T07:26:20.217Z,100506.59
2022-12-01T07:30:36.385Z,100484.78
2022-12-01T07:34:52.722Z,100492.25
2022-12-01T07:39:09.442Z,100496.59
2022-12-01T07:43:25.616Z,100488.84
2022-12-01T07:47:41.798Z,100483.53
2022-12-01T07:51:57.923Z,100499.44
2022-12-01T07:56:14.239Z,100488.72
2022-12-01T08:00:30.393Z,100477.25
2022-12-01T08:04:46.521Z,100482.16
2022-12-01T08:09:02.635Z,100478.63
2022-12-01T08:13:19.371Z,100475.00
2022-12-01T08:17:35.509Z,100467.31
2022-12-01T08:21:51.664Z,100478.72
2022-12-01T08:26:12.617Z,100476.28
2022-12-01T08:30:29.157Z,100475.13
2022-12-01T08:34:49.320Z,100475.47
2022-12-01T08:39:09.239Z,100474.22
2022-12-01T08:48:03.377Z,100488.06
2022-12-01T08:52:20.329Z,100487.09
2022-12-01T08:56:39.257Z,100489.00
2022-12-01T09:01:01.482Z,100482.34
2022-12-01T09:05:17.678Z,100481.69
2022-12-01T09:09:35.345Z,100485.34
2022-12-01T09:13:54.686Z,100487.84
2022-12-01T09:18:11.020Z,100483.12
2022-12-01T09:22:27.254Z,100476.50
2022-12-01T09:26:43.855Z,100464.06
2022-12-01T09:31:05.857Z,100461.84
2022-12-01T09:35:23.602Z,100461.47
2022-12-01T09:39:39.878Z,100460.75
2022-12-01T09:43:58.896Z,100465.16
2022-12-01T09:48:42.748Z,100465.94
2022-12-01T09:53:08.547Z,100462.44
2022-12-01T09:57:32.247Z,100452.22
2022-12-01T10:01:52.515Z,100440.63
2022-12-01T10:06:32.307Z,100435.81
2022-12-01T10:10:51.489Z,100423.84
2022-12-01T10:15:35.474Z,100430.28
2022-12-01T10:19:59.049Z,100433.63
2022-12-01T10:24:40.690Z,100431.81
2022-12-01T10:29:34.460Z,100430.78
2022-12-01T10:34:02.713Z,100422.97
2022-12-01T10:38:27.257Z,100419.84
2022-12-01T10:42:46.311Z,100413.44
2022-12-01T10:47:02.454Z,100410.94
2022-12-01T10:51:20.766Z,100401.72
2022-12-01T10:55:43.478Z,100405.97
2022-12-01T11:00:08.783Z,100391.00
2022-12-01T11:04:46.376Z,100399.81
2022-12-01T11:09:07.939Z,100386.78
2022-12-01T11:13:36.455Z,100386.37
2022-12-01T11:18:01.627Z,100379.94
2022-12-01T11:22:23.895Z,100378.38
2022-12-01T11:26:40.137Z,100367.53
2022-12-01T11:31:37.568Z,100370.97
2022-12-01T11:35:54.094Z,100366.06
2022-12-01T11:40:27.271Z,100368.22
2022-12-01T11:45:20.688Z,100357.84
2022-12-01T11:49:45.352Z,100348.97
2022-12-01T11:54:17.914Z,100354.53
2022-12-01T11:58:34.252Z,100338.56
2022-12-01T12:03:15.462Z,100347.84
2022-12-01T12:07:57.745Z,100342.97
2022-12-01T12:12:22.646Z,100343.59
2022-12-01T12:16:44.551Z,100341.44
2022-12-01T12:21:12.401Z,100339.81
2022-12-01T12:25:31.315Z,100336.47
2022-12-01T12:29:54.208Z,100335.03
2022-12-01T12:34:22.564Z,100338.16
2022-12-01T12:39:01.402Z,100343.38
2022-12-01T12:43:23.146Z,100341.72
2022-12-01T12:47:56.079Z,100335.69
2022-12-01T12:52:20.938Z,100340.88
2022-12-01T12:56:37.317Z,100342.34
2022-12-01T13:01:17.964Z,100335.81
2022-12-01T13:05:44.033Z,100339.50
2022-12-01T13:10:10.392Z,100327.78
2022-12-01T13:15:00.895Z,100330.28
2022-12-01T13:19:39.430Z,100329.97
2022-12-01T13:23:55.583Z,100323.09
2022-12-01T13:28:22.371Z,100336.94
2022-12-01T13:32:40.831Z,100321.75
2022-12-01T13:36:56.976Z,100317.28
2022-12-01T13:41:24.846Z,100310.81
2022-12-01T13:45:43.825Z,100309.84
2022-12-01T13:50:19.872Z,100313.72
2022-12-01T13:54:37.737Z,100308.19
2022-12-01T13:58:55.252Z,100303.19
2022-12-01T14:03:17.350Z,100314.72
2022-12-01T14:07:36.223Z,100306.59
2022-12-01T14:12:02.954Z,100311.03
2022-12-01T14:16:19.408Z,100312.88
2022-12-01T14:20:45.125Z,100311.87
2022-12-01T14:25:02.144Z,100321.81
2022-12-01T14:29:38.584Z,100332.41
2022-12-01T14:33:59.318Z,100332.63
2022-12-01T14:38:16.155Z,100334.75
2022-12-01T14:42:59.514Z,100332.06
2022-12-01T14:47:23.257Z,100336.03
2022-12-01T14:51:42.550Z,100341.03
2022-12-01T14:56:01.374Z,100338.41
2022-12-01T15:00:24.026Z,100330.41
2022-12-01T15:05:08.276Z,100331.75
2022-12-01T15:09:33.946Z,100329.53
2022-12-01T15:13:55.956Z,100327.56
2022-12-01T15:18:23.545Z,100328.22
2022-12-01T15:22:41.863Z,100328.69
2022-12-01T15:27:03.648Z,100332.81
2022-12-01T15:31:22.313Z,100345.81
2022-12-01T15:35:38.555Z,100344.81
2022-12-01T15:40:59.759Z,100341.13
2022-12-01T15:44:45.473Z,100342.66
2022-12-01T15:49:27.833Z,100334.84
2022-12-01T15:53:48.538Z,100352.97
2022-12-01T15:58:11.527Z,100351.53
2022-12-01T16:02:30.823Z,100351.75
2022-12-01T16:06:59.606Z,100357.47
2022-12-01T16:11:20.675Z,100352.53
2022-12-01T16:15:44.291Z,100357.59
2022-12-01T16:20:18.181Z,100359.81
2022-12-01T16:24:53.767Z,100373.22
2022-12-01T16:29:21.077Z,100362.28
2022-12-01T16:33:38.623Z,100371.44
2022-12-01T16:37:55.580Z,100366.41
2022-12-01T16:42:17.576Z,100365.22
2022-12-01T16:46:34.096Z,100359.44
2022-12-01T16:50:51.253Z,100366.75
2022-12-01T16:55:37.306Z,100367.34
2022-12-01T16:59:53.387Z,100366.06
2022-12-01T17:04:09.494Z,100361.88
2022-12-01T17:08:27.574Z,100367.56
2022-12-01T17:12:43.664Z,100367.66
2022-12-01T17:16:59.768Z,100368.06
2022-12-01T17:21:15.934Z,100376.78
2022-12-01T17:25:32.512Z,100371.28
2022-12-01T17:29:48.702Z,100370.69
2022-12-01T17:34:04.920Z,100380.59
2022-12-01T17:38:21.033Z,100379.91
2022-12-01T17:42:37.197Z,100382.31
2022-12-01T17:46:53.369Z,100379.37
2022-12-01T17:51:10.448Z,100378.41
2022-12-01T17:55:26.566Z,100378.09
2022-12-01T17:59:42.654Z,100380.19
2022-12-01T18:03:59.300Z,100378.03
2022-12-01T18:08:15.488Z,100372.28
2022-12-01T18:12:31.550Z,100379.81
2022-12-01T18:16:47.619Z,100373.69
2022-12-01T18:21:08.200Z,100369.06
2022-12-01T18:25:24.396Z,100375.38
2022-12-01T18:29:40.538Z,100370.50
2022-12-01T18:33:59.540Z,100377.50
2022-12-01T18:38:15.647Z,100385.44
2022-12-01T18:42:32.142Z,100380.41
2022-12-01T18:46:48.268Z,100380.88
2022-12-01T18:51:08.291Z,100377.62
2022-12-01T18:55:24.478Z,100372.75
2022-12-01T18:59:41.211Z,100374.19
2022-12-01T19:03:58.204Z,100370.56
2022-12-01T19:08:14.733Z,100377.28
2022-12-01T19:12:31.840Z,100376.34
2022-12-01T19:16:50.316Z,100378.81
2022-12-01T19:21:07.900Z,100383.53
2022-12-01T19:25:24.025Z,100374.81
2022-12-01T19:29:40.091Z,100387.91
2022-12-01T19:33:56.440Z,100377.78
2022-12-01T19:38:12.600Z,100374.38
2022-12-01T19:42:30.381Z,100385.38
2022-12-01T19:46:46.568Z,100386.00
2022-12-01T19:51:03.163Z,100390.97
2022-12-01T19:55:19.569Z,100390.13
2022-12-01T19:59:35.703Z,100389.34
2022-12-01T20:03:52.972Z,100391.72
2022-12-01T20:08:13.586Z,100402.50
2022-12-01T20:12:29.827Z,100396.84
2022-12-01T20:16:45.989Z,100395.47
2022-12-01T20:21:10.977Z,100391.34
2022-12-01T20:25:27.158Z,100396.91
2022-12-01T20:29:43.333Z,100396.97
2022-12-01T20:34:01.828Z,100396.56
2022-12-01T20:38:24.251Z,100409.00
2022-12-01T20:42:43.438Z,100407.31
2022-12-01T20:46:59.555Z,100403.53
2022-12-01T20:51:16.029Z,100403.78
2022-12-01T20:55:32.212Z,100408.75
2022-12-01T20:59:48.303Z,100409.81
2022-12-01T21:04:06.353Z,100404.09
2022-12-01T21:08:22.602Z,100415.44
2022-12-01T21:12:58.389Z,100426.97
2022-12-01T21:17:28.732Z,100417.25
2022-12-01T21:21:45.100Z,100422.78
2022-12-01T21:26:01.659Z,100415.38
2022-12-01T21:30:25.137Z,100420.44
2022-12-01T21:34:41.598Z,100422.84
2022-12-01T21:39:05.620Z,100418.06
2022-12-01T21:43:24.917Z,100428.44
2022-12-01T21:47:41.381Z,100426.47
2022-12-01T21:51:58.658Z,100436.44
2022-12-01T21:56:24.797Z,100443.78
2022-12-01T22:00:41.713Z,100438.47
2022-12-01T22:04:59.086Z,100446.50
2022-12-01T22:09:29.645Z,100449.25
2022-12-01T22:14:08.865Z,100437.25
2022-12-01T22:18:39.613Z,100440.16
2022-12-01T22:22:55.757Z,100437.63
2022-12-01T22:27:40.527Z,100438.97
2022-12-01T22:32:16.970Z,100437.94
2022-12-01T22:36:33.636Z,100433.00
2022-12-01T22:40:54.043Z,100433.78
2022-12-01T22:45:25.611Z,100426.34
2022-12-01T22:49:42.561Z,100428.62
2022-12-01T22:54:01.691Z,100428.56
2022-12-01T22:58:39.362Z,100428.16
2022-12-01T23:02:56.615Z,100425.38
2022-12-01T23:07:35.193Z,100421.91
2022-12-01T23:12:02.078Z,100416.34
2022-12-01T23:16:18.370Z,100420.19
2022-12-01T23:20:35.758Z,100409.00
2022-12-01T23:24:52.136Z,100412.38
2022-12-01T23:29:08.483Z,100407.19
2022-12-01T23:33:25.396Z,100407.81
2022-12-01T23:37:43.985Z,100419.91
2022-12-01T23:42:00.544Z,100418.25
2022-12-01T23:46:24.652Z,100421.97
2022-12-01T23:50:40.818Z,100413.41
2022-12-01T23:54:57.035Z,100410.28
2022-12-01T23:59:14.447Z,100420.50
